createdAt,value
2022-09-24T00:01:35.999Z,7.60
2022-09-24T00:04:05.780Z,8.10
2022-09-24T00:06:37.443Z,7.83
2022-09-24T00:09:05.166Z,8.27
2022-09-24T00:11:32.684Z,8.00
2022-09-24T00:14:00.163Z,7.67
2022-09-24T00:16:30.596Z,7.10
2022-09-24T00:18:59.033Z,7.63
2022-09-24T00:21:28.557Z,7.67
2022-09-24T00:23:58.529Z,7.80
2022-09-24T00:26:44.263Z,7.90
2022-09-24T00:29:13.827Z,7.80
2022-09-24T00:31:40.736Z,8.00
2022-09-24T00:34:07.865Z,7.70
2022-09-24T00:36:34.882Z,7.03
2022-09-24T00:39:02.007Z,7.53
2022-09-24T00:41:31.374Z,7.43
2022-09-24T00:44:00.326Z,7.27
2022-09-24T00:46:35.216Z,8.23
2022-09-24T00:49:10.080Z,7.33
2022-09-24T00:51:37.796Z,7.93
2022-09-24T00:54:09.370Z,7.90
2022-09-24T00:56:39.185Z,8.17
2022-09-24T00:59:09.006Z,8.57
2022-09-24T01:01:35.943Z,7.73
2022-09-24T01:04:04.370Z,8.30
2022-09-24T01:06:31.282Z,8.47
2022-09-24T01:08:59.886Z,8.23
2022-09-24T01:11:48.791Z,8.67
2022-09-24T01:14:27.639Z,9.33
2022-09-24T01:17:08.471Z,8.50
2022-09-24T01:19:59.472Z,8.63
2022-09-24T01:22:41.291Z,8.57
2022-09-24T01:25:13.295Z,8.30
2022-09-24T01:27:45.812Z,8.50
2022-09-24T01:30:15.231Z,7.90
2022-09-24T01:33:02.171Z,7.90
2022-09-24T01:35:36.458Z,8.40
2022-09-24T01:38:08.092Z,8.80
2022-09-24T01:40:36.701Z,8.23
2022-09-24T01:43:05.913Z,8.00
2022-09-24T01:45:35.489Z,7.57
2022-09-24T01:48:04.367Z,8.10
2022-09-24T01:50:38.162Z,7.13
2022-09-24T01:53:18.035Z,6.60
2022-09-24T01:55:49.739Z,7.27
2022-09-24T01:58:27.938Z,6.90
2022-09-24T02:01:03.496Z,6.47
2022-09-24T02:03:43.217Z,6.30
2022-09-24T02:06:17.784Z,6.77
2022-09-24T02:08:47.477Z,7.43
2022-09-24T02:11:23.270Z,6.70
2022-09-24T02:13:53.887Z,7.80
2022-09-24T02:16:48.096Z,7.00
2022-09-24T02:19:19.634Z,6.73
2022-09-24T02:21:47.195Z,7.17
2022-09-24T02:24:17.196Z,6.83
2022-09-24T02:26:44.153Z,7.13
2022-09-24T02:29:11.858Z,6.70
2022-09-24T02:31:42.981Z,7.37
2022-09-24T02:34:25.564Z,7.20
2022-09-24T02:37:14.188Z,6.80
2022-09-24T02:39:41.927Z,7.60
2022-09-24T02:42:13.128Z,7.90
2022-09-24T02:44:40.071Z,7.83
2022-09-24T02:47:07.430Z,8.40
2022-09-24T02:49:34.253Z,7.60
2022-09-24T02:52:01.238Z,8.27
2022-09-24T02:54:28.092Z,8.40
2022-09-24T02:56:55.344Z,7.90
2022-09-24T02:59:22.646Z,7.87
2022-09-24T03:01:50.291Z,8.60
2022-09-24T03:04:17.735Z,8.27
2022-09-24T03:06:44.550Z,7.53
2022-09-24T03:09:14.700Z,8.03
2022-09-24T03:11:41.619Z,8.07
2022-09-24T03:14:08.580Z,8.00
2022-09-24T03:16:35.518Z,8.30
2022-09-24T03:19:02.599Z,8.50
2022-09-24T03:21:29.660Z,7.97
2022-09-24T03:23:56.770Z,8.30
2022-09-24T03:26:23.692Z,9.00
2022-09-24T03:28:50.577Z,8.13
2022-09-24T03:31:17.593Z,8.17
2022-09-24T03:33:45.765Z,8.57
2022-09-24T03:36:14.145Z,8.03
2022-09-24T03:38:42.531Z,8.37
2022-09-24T03:41:10.644Z,7.47
2022-09-24T03:43:37.716Z,7.80
2022-09-24T03:46:06.922Z,7.70
2022-09-24T03:48:35.685Z,7.80
2022-09-24T03:51:11.533Z,7.67
2022-09-24T03:53:39.176Z,7.20
2022-09-24T03:56:07.357Z,7.80
2022-09-24T03:58:38.901Z,7.37
2022-09-24T04:01:07.182Z,8.10
2022-09-24T04:03:34.219Z,7.90
2022-09-24T04:06:00.945Z,8.20
2022-09-24T04:08:28.058Z,8.60
2022-09-24T04:10:55.555Z,7.63
2022-09-24T04:13:22.708Z,8.37
2022-09-24T04:15:50.402Z,7.87
2022-09-24T04:18:18.335Z,8.60
2022-09-24T04:20:45.578Z,8.23
2022-09-24T04:23:12.774Z,8.20
2022-09-24T04:25:42.338Z,8.93
2022-09-24T04:28:09.996Z,10.07
2022-09-24T04:30:38.254Z,9.93
2022-09-24T04:33:05.603Z,9.20
2022-09-24T04:35:35.389Z,9.93
2022-09-24T04:38:03.076Z,10.67
2022-09-24T04:40:30.373Z,10.27
2022-09-24T04:42:57.623Z,11.03
2022-09-24T04:45:26.650Z,11.23
2022-09-24T04:47:57.188Z,10.83
2022-09-24T04:50:26.495Z,10.50
2022-09-24T04:52:54.855Z,10.57
2022-09-24T04:55:22.408Z,10.87
2022-09-24T04:57:50.487Z,10.70
2022-09-24T05:00:19.859Z,11.47
2022-09-24T05:02:47.089Z,10.67
2022-09-24T05:05:14.442Z,11.73
2022-09-24T05:07:42.793Z,11.80
2022-09-24T05:10:09.697Z,10.83
2022-09-24T05:12:36.716Z,10.80
2022-09-24T05:15:04.182Z,11.50
2022-09-24T05:17:31.107Z,11.77
2022-09-24T05:19:59.555Z,10.93
2022-09-24T05:22:30.071Z,11.27
2022-09-24T05:24:57.117Z,10.83
2022-09-24T05:27:24.293Z,11.17
2022-09-24T05:29:51.198Z,11.10
2022-09-24T05:32:20.408Z,10.90
2022-09-24T05:34:47.558Z,11.33
2022-09-24T05:37:15.040Z,11.30
2022-09-24T05:39:42.347Z,10.87
2022-09-24T05:42:16.427Z,10.53
2022-09-24T05:44:45.643Z,10.40
2022-09-24T05:47:16.340Z,10.10
2022-09-24T05:49:43.220Z,10.53
2022-09-24T05:52:10.002Z,10.37
2022-09-24T05:54:36.829Z,10.50
2022-09-24T05:57:03.852Z,10.80
2022-09-24T05:59:30.569Z,11.33
2022-09-24T06:01:57.434Z,11.17
2022-09-24T06:04:24.343Z,11.33
2022-09-24T06:06:52.355Z,11.57
2022-09-24T06:09:19.111Z,11.37
2022-09-24T06:11:46.669Z,11.43
2022-09-24T06:14:15.128Z,11.57
2022-09-24T06:16:41.928Z,11.23
2022-09-24T06:19:08.816Z,12.53
2022-09-24T06:21:35.648Z,11.93
2022-09-24T06:24:03.066Z,12.87
2022-09-24T06:26:30.044Z,12.70
2022-09-24T06:29:00.783Z,13.63
2022-09-24T06:31:30.775Z,14.17
2022-09-24T06:33:57.705Z,14.10
2022-09-24T06:36:24.504Z,14.83
2022-09-24T06:38:52.793Z,16.17
2022-09-24T06:41:19.783Z,16.00
2022-09-24T06:43:46.585Z,14.73
2022-09-24T06:46:15.647Z,16.67
2022-09-24T06:48:42.661Z,15.57
2022-09-24T06:51:09.451Z,16.13
2022-09-24T06:53:36.348Z,16.77
2022-09-24T06:56:03.633Z,17.33
2022-09-24T06:58:30.880Z,17.43
2022-09-24T07:00:59.878Z,16.80
2022-09-24T07:03:28.454Z,16.80
2022-09-24T07:05:55.783Z,17.27
2022-09-24T07:08:23.353Z,17.77
2022-09-24T07:10:50.363Z,16.90
2022-09-24T07:13:17.377Z,16.70
2022-09-24T07:15:44.961Z,17.53
2022-09-24T07:18:12.437Z,17.37
2022-09-24T07:20:39.518Z,17.03
2022-09-24T07:23:08.119Z,16.80
2022-09-24T07:25:35.939Z,17.27
2022-09-24T07:28:04.869Z,18.20
2022-09-24T07:30:33.305Z,18.03
2022-09-24T07:33:00.458Z,18.33
2022-09-24T07:35:28.638Z,18.90
2022-09-24T07:38:12.273Z,18.40
2022-09-24T07:40:39.437Z,18.83
2022-09-24T07:43:13.668Z,19.80
2022-09-24T07:45:41.973Z,20.17
2022-09-24T07:48:10.619Z,18.63
2022-09-24T07:50:42.832Z,20.10
2022-09-24T07:53:13.330Z,19.27
2022-09-24T07:55:41.271Z,19.93
2022-09-24T07:58:12.178Z,20.90
2022-09-24T08:00:39.317Z,20.60
2022-09-24T08:03:07.382Z,19.40
2022-09-24T08:05:34.451Z,20.67
2022-09-24T08:08:01.468Z,20.60
2022-09-24T08:10:28.825Z,19.93
2022-09-24T08:12:58.538Z,20.13
2022-09-24T08:15:25.972Z,19.13
2022-09-24T08:17:53.093Z,21.40
2022-09-24T08:20:21.488Z,20.50
2022-09-24T08:22:48.436Z,20.40
2022-09-24T08:25:15.282Z,20.30
2022-09-24T08:27:42.282Z,21.50
2022-09-24T08:30:09.671Z,20.80
2022-09-24T08:32:36.501Z,20.57
2022-09-24T08:35:03.587Z,20.23
2022-09-24T08:37:32.764Z,20.53
2022-09-24T08:39:59.527Z,20.00
2022-09-24T08:42:38.088Z,21.70
2022-09-24T08:45:24.707Z,20.63
2022-09-24T08:48:22.392Z,20.10
2022-09-24T08:50:58.011Z,19.87
2022-09-24T08:53:44.221Z,19.00
2022-09-24T08:56:12.223Z,18.67
2022-09-24T08:58:53.167Z,18.57
2022-09-24T09:01:19.871Z,18.03
2022-09-24T09:03:51.721Z,18.13
2022-09-24T09:06:48.116Z,17.77
2022-09-24T09:09:24.230Z,16.00
2022-09-24T09:11:56.991Z,18.47
2022-09-24T09:14:42.251Z,18.73
2022-09-24T09:17:34.633Z,17.00
2022-09-24T09:20:07.452Z,16.43
2022-09-24T09:22:45.120Z,16.53
2022-09-24T09:25:36.290Z,16.90
2022-09-24T09:28:15.518Z,17.47
2022-09-24T09:31:00.163Z,18.17
2022-09-24T09:33:45.976Z,17.67
2022-09-24T09:36:45.240Z,17.50
2022-09-24T09:39:50.774Z,17.90
2022-09-24T09:42:39.910Z,19.33
2022-09-24T09:45:27.708Z,20.87
2022-09-24T09:47:57.098Z,19.13
2022-09-24T09:50:39.436Z,21.47
2022-09-24T09:53:06.226Z,21.17
2022-09-24T09:55:36.650Z,20.97
2022-09-24T09:58:15.674Z,21.10
2022-09-24T10:00:42.904Z,21.77
2022-09-24T10:03:27.924Z,22.57
2022-09-24T10:06:06.575Z,21.77
2022-09-24T10:08:33.804Z,23.13
2022-09-24T10:11:03.384Z,21.27
2022-09-24T10:13:33.045Z,22.63
2022-09-24T10:16:03.818Z,21.03
2022-09-24T10:18:37.523Z,21.63
2022-09-24T10:21:09.963Z,21.93
2022-09-24T10:23:40.412Z,22.03
2022-09-24T10:26:08.493Z,21.63
2022-09-24T10:29:00.398Z,20.13
2022-09-24T10:31:31.065Z,21.33
2022-09-24T10:34:01.263Z,22.27
2022-09-24T10:36:30.218Z,21.80
2022-09-24T10:39:08.645Z,22.43
2022-09-24T10:41:36.072Z,21.57
2022-09-24T10:44:13.747Z,20.30
2022-09-24T10:46:46.342Z,20.83
2022-09-24T10:49:50.802Z,21.07
2022-09-24T10:52:35.531Z,19.93
2022-09-24T10:55:08.060Z,20.33
2022-09-24T10:57:42.284Z,20.30
2022-09-24T11:00:09.946Z,20.70
2022-09-24T11:03:06.047Z,17.57
2022-09-24T11:05:53.368Z,16.70
2022-09-24T11:08:47.801Z,16.40
2022-09-24T11:11:36.949Z,15.80
2022-09-24T11:14:36.207Z,16.53
2022-09-24T11:17:22.604Z,16.57
2022-09-24T11:20:14.077Z,16.90
2022-09-24T11:22:51.511Z,18.10
2022-09-24T11:25:38.226Z,16.90
2022-09-24T11:28:20.499Z,18.20
2022-09-24T11:30:56.678Z,17.67
2022-09-24T11:33:49.754Z,18.20
2022-09-24T11:36:30.664Z,18.73
2022-09-24T11:39:16.983Z,18.47
2022-09-24T11:41:57.647Z,18.60
2022-09-24T11:44:43.450Z,19.27
2022-09-24T11:47:45.443Z,18.37
2022-09-24T11:50:20.811Z,19.03
2022-09-24T11:53:20.406Z,18.67
2022-09-24T11:55:54.896Z,19.93
2022-09-24T11:58:29.991Z,19.30
2022-09-24T12:01:02.561Z,19.53
2022-09-24T12:03:39.532Z,19.43
2022-09-24T12:06:13.021Z,21.27
2022-09-24T12:09:23.298Z,19.43
2022-09-24T12:12:04.213Z,20.43
2022-09-24T12:14:57.028Z,21.33
2022-09-24T12:17:29.428Z,20.33
2022-09-24T12:20:03.820Z,20.30
2022-09-24T12:22:33.041Z,21.10
2022-09-24T12:25:00.714Z,20.87
2022-09-24T12:27:36.089Z,21.13
2022-09-24T12:30:34.766Z,20.70
2022-09-24T12:33:12.224Z,22.33
2022-09-24T12:36:02.015Z,22.97
2022-09-24T12:38:58.840Z,22.30
2022-09-24T12:41:34.877Z,22.77
2022-09-24T12:44:07.237Z,24.03
2022-09-24T12:46:41.760Z,24.37
2022-09-24T12:49:26.955Z,23.83
2022-09-24T12:52:15.976Z,25.30
2022-09-24T12:54:44.341Z,26.03
2022-09-24T12:57:24.291Z,26.07
2022-09-24T12:59:57.991Z,27.07
2022-09-24T13:02:33.188Z,24.53
2022-09-24T13:05:03.131Z,24.33
2022-09-24T13:07:39.721Z,20.73
2022-09-24T13:10:18.512Z,19.57
2022-09-24T13:12:46.563Z,19.23
2022-09-24T13:15:34.749Z,18.17
2022-09-24T13:18:07.909Z,18.03
2022-09-24T13:20:36.950Z,17.60
2022-09-24T13:23:19.863Z,16.57
2022-09-24T13:26:24.577Z,17.43
2022-09-24T13:28:58.256Z,17.07
2022-09-24T13:31:41.003Z,18.10
2022-09-24T13:34:10.986Z,17.97
2022-09-24T13:37:08.306Z,17.77
2022-09-24T13:39:47.235Z,17.80
2022-09-24T13:42:35.197Z,17.43
2022-09-24T13:45:09.593Z,18.30
2022-09-24T13:48:00.460Z,17.87
2022-09-24T13:50:34.551Z,17.90
2022-09-24T13:53:40.356Z,17.40
2022-09-24T13:56:19.092Z,17.70
2022-09-24T13:58:47.663Z,18.10
2022-09-24T14:01:19.726Z,18.20
2022-09-24T14:04:05.864Z,18.17
2022-09-24T14:06:42.546Z,17.37
2022-09-24T14:09:23.515Z,17.77
2022-09-24T14:11:52.595Z,18.83
2022-09-24T14:14:22.149Z,17.77
2022-09-24T14:16:49.006Z,19.13
2022-09-24T14:19:16.973Z,19.27
2022-09-24T14:21:56.959Z,19.10
2022-09-24T14:24:31.233Z,20.57
2022-09-24T14:27:08.749Z,20.63
2022-09-24T14:30:01.210Z,21.10
2022-09-24T14:32:39.584Z,20.40
2022-09-24T14:35:21.206Z,20.40
2022-09-24T14:37:54.876Z,20.87
2022-09-24T14:40:23.439Z,21.13
2022-09-24T14:42:59.943Z,21.80
2022-09-24T14:45:37.867Z,21.67
2022-09-24T14:48:28.420Z,21.30
2022-09-24T14:50:55.486Z,20.50
2022-09-24T14:53:27.115Z,20.13
2022-09-24T14:55:54.696Z,20.27
2022-09-24T14:58:37.799Z,20.50
2022-09-24T15:01:15.571Z,22.30
2022-09-24T15:03:51.019Z,21.77
2022-09-24T15:06:21.242Z,21.37
2022-09-24T15:09:02.601Z,20.37
2022-09-24T15:11:34.196Z,22.53
2022-09-24T15:14:31.447Z,20.43
2022-09-24T15:17:10.577Z,20.30
2022-09-24T15:19:40.856Z,19.73
2022-09-24T15:22:09.821Z,21.10
2022-09-24T15:24:36.578Z,21.90
2022-09-24T15:27:22.771Z,21.40
2022-09-24T15:29:50.676Z,21.33
2022-09-24T15:32:19.196Z,22.10
2022-09-24T15:34:46.730Z,20.37
2022-09-24T15:37:22.128Z,21.13
2022-09-24T15:39:49.991Z,21.03
2022-09-24T15:42:23.908Z,18.70
2022-09-24T15:44:51.068Z,18.17
2022-09-24T15:47:18.740Z,19.50
2022-09-24T15:49:46.132Z,17.73
2022-09-24T15:52:24.248Z,21.27
2022-09-24T15:54:55.663Z,17.47
2022-09-24T15:57:28.453Z,18.60
2022-09-24T15:59:55.350Z,17.93
2022-09-24T16:02:27.878Z,15.63
2022-09-24T16:05:00.149Z,14.83
2022-09-24T16:07:29.531Z,13.97
2022-09-24T16:09:56.298Z,13.90
2022-09-24T16:12:27.881Z,14.90
2022-09-24T16:14:58.968Z,14.77
2022-09-24T16:17:26.883Z,16.67
2022-09-24T16:19:53.942Z,14.87
2022-09-24T16:22:21.003Z,17.17
2022-09-24T16:24:47.996Z,16.90
2022-09-24T16:27:14.812Z,16.43
2022-09-24T16:29:41.592Z,16.80
2022-09-24T16:32:08.438Z,18.37
2022-09-24T16:34:35.243Z,18.17
2022-09-24T16:37:02.045Z,17.57
2022-09-24T16:39:28.792Z,17.67
2022-09-24T16:41:55.584Z,17.70
2022-09-24T16:44:22.496Z,18.00
2022-09-24T16:46:49.261Z,17.93
2022-09-24T16:49:16.109Z,18.17
2022-09-24T16:51:42.920Z,17.33
2022-09-24T16:54:09.741Z,18.07
2022-09-24T16:56:37.583Z,17.53
2022-09-24T16:59:04.650Z,16.53
2022-09-24T17:01:31.571Z,19.00
2022-09-24T17:03:59.048Z,17.77
2022-09-24T17:06:28.782Z,18.03
2022-09-24T17:09:14.580Z,19.27
2022-09-24T17:11:42.076Z,19.17
2022-09-24T17:14:12.305Z,22.10
2022-09-24T17:16:41.194Z,25.60
2022-09-24T17:19:09.632Z,27.77
2022-09-24T17:21:38.104Z,31.43
2022-09-24T17:24:05.399Z,28.47
2022-09-24T17:26:32.164Z,27.70
2022-09-24T17:28:59.011Z,27.57
2022-09-24T17:31:26.643Z,30.33
2022-09-24T17:33:58.644Z,34.07
2022-09-24T17:36:26.731Z,34.17
2022-09-24T17:38:53.860Z,34.90
2022-09-24T17:41:20.696Z,35.40
2022-09-24T17:43:48.149Z,36.00
2022-09-24T17:46:17.223Z,35.33
2022-09-24T17:48:46.457Z,36.77
2022-09-24T17:51:22.848Z,35.67
2022-09-24T17:53:52.994Z,36.33
2022-09-24T17:56:22.799Z,37.27
2022-09-24T17:58:49.911Z,35.43
2022-09-24T18:01:19.705Z,36.17
2022-09-24T18:03:46.863Z,36.70
2022-09-24T18:06:15.221Z,39.73
2022-09-24T18:08:44.169Z,37.50
2022-09-24T18:11:17.582Z,37.97
2022-09-24T18:13:44.989Z,37.70
2022-09-24T18:16:14.462Z,36.80
2022-09-24T18:18:42.595Z,37.00
2022-09-24T18:21:11.758Z,35.73
2022-09-24T18:23:39.482Z,36.07
2022-09-24T18:26:32.486Z,38.07
2022-09-24T18:29:01.268Z,36.83
2022-09-24T18:31:29.695Z,38.10
2022-09-24T18:34:03.911Z,38.40
2022-09-24T18:36:31.719Z,39.30
2022-09-24T18:38:58.469Z,38.17
2022-09-24T18:41:27.192Z,39.37
2022-09-24T18:43:54.853Z,37.93
2022-09-24T18:46:23.201Z,40.27
2022-09-24T18:48:52.825Z,43.10
2022-09-24T18:51:38.561Z,39.80
2022-09-24T18:54:14.042Z,46.37
2022-09-24T18:56:41.334Z,45.70
2022-09-24T18:59:12.266Z,43.63
2022-09-24T19:01:40.126Z,41.13
2022-09-24T19:04:10.678Z,47.17
2022-09-24T19:06:42.986Z,43.43
2022-09-24T19:09:11.699Z,42.47
2022-09-24T19:11:38.804Z,41.50
2022-09-24T19:14:05.742Z,38.43
2022-09-24T19:16:33.556Z,28.10
2022-09-24T19:19:01.314Z,28.30
2022-09-24T19:21:28.824Z,22.77
2022-09-24T19:23:57.431Z,18.23
2022-09-24T19:26:27.497Z,16.70
2022-09-24T19:28:55.037Z,16.40
2022-09-24T19:31:26.953Z,16.40
2022-09-24T19:33:54.896Z,12.70
2022-09-24T19:36:22.370Z,11.60
2022-09-24T19:38:50.403Z,12.37
2022-09-24T19:41:26.647Z,11.40
2022-09-24T19:43:57.031Z,10.20
2022-09-24T19:46:25.687Z,10.77
2022-09-24T19:48:54.911Z,9.97
2022-09-24T19:51:30.304Z,10.07
2022-09-24T19:54:02.843Z,10.50
2022-09-24T19:56:31.922Z,10.40
2022-09-24T19:59:00.857Z,9.90
2022-09-24T20:01:30.146Z,10.33
2022-09-24T20:03:58.361Z,10.07
2022-09-24T20:06:28.922Z,10.73
2022-09-24T20:08:57.320Z,9.87
2022-09-24T20:11:25.767Z,9.30
2022-09-24T20:13:55.799Z,8.43
2022-09-24T20:16:26.463Z,8.80
2022-09-24T20:18:57.593Z,9.53
2022-09-24T20:21:27.876Z,9.20
2022-09-24T20:23:56.656Z,9.70
2022-09-24T20:26:43.703Z,10.40
2022-09-24T20:29:10.985Z,10.07
2022-09-24T20:31:41.856Z,9.90
2022-09-24T20:34:09.360Z,9.97
2022-09-24T20:36:36.500Z,9.93
2022-09-24T20:39:04.033Z,9.73
2022-09-24T20:41:30.947Z,11.77
2022-09-24T20:43:57.811Z,11.83
2022-09-24T20:46:28.628Z,12.33
2022-09-24T20:48:58.309Z,11.27
2022-09-24T20:51:27.326Z,11.37
2022-09-24T20:53:54.986Z,11.10
2022-09-24T20:56:22.337Z,11.70
2022-09-24T20:58:50.820Z,13.10
2022-09-24T21:01:18.581Z,14.00
2022-09-24T21:03:46.213Z,14.13
2022-09-24T21:06:14.979Z,14.53
2022-09-24T21:08:44.235Z,13.40
2022-09-24T21:11:18.164Z,13.77
2022-09-24T21:13:49.990Z,13.37
2022-09-24T21:16:19.879Z,15.23
2022-09-24T21:18:47.668Z,16.30
2022-09-24T21:21:19.881Z,17.30
2022-09-24T21:23:49.137Z,16.93
2022-09-24T21:26:21.896Z,16.37
2022-09-24T21:28:53.958Z,17.13
2022-09-24T21:31:24.002Z,17.73
2022-09-24T21:33:52.717Z,18.10
2022-09-24T21:36:25.140Z,17.80
2022-09-24T21:38:58.919Z,19.03
2022-09-24T21:41:34.213Z,19.53
2022-09-24T21:44:02.179Z,20.47
2022-09-24T21:46:32.184Z,20.20
2022-09-24T21:49:00.332Z,21.70
2022-09-24T21:51:28.710Z,21.47
2022-09-24T21:54:01.822Z,22.47
2022-09-24T21:56:30.485Z,22.70
2022-09-24T21:58:58.387Z,22.77
2022-09-24T22:01:30.710Z,21.90
2022-09-24T22:03:59.667Z,22.40
2022-09-24T22:06:29.188Z,23.97
2022-09-24T22:09:04.806Z,23.23
2022-09-24T22:11:31.829Z,23.20
2022-09-24T22:14:01.137Z,23.03
2022-09-24T22:16:35.906Z,24.30
2022-09-24T22:19:04.255Z,24.27
2022-09-24T22:21:31.441Z,26.53
2022-09-24T22:23:58.826Z,24.53
2022-09-24T22:26:29.652Z,25.57
2022-09-24T22:28:57.473Z,27.53
2022-09-24T22:31:24.950Z,27.03
2022-09-24T22:34:10.514Z,27.73
2022-09-24T22:36:37.674Z,27.43
2022-09-24T22:39:05.632Z,27.23
2022-09-24T22:41:38.508Z,27.07
2022-09-24T22:44:06.332Z,27.77
2022-09-24T22:46:34.131Z,28.10
2022-09-24T22:49:01.476Z,28.37
2022-09-24T22:51:28.325Z,28.13
2022-09-24T22:53:56.898Z,28.70
2022-09-24T22:56:25.023Z,29.93
2022-09-24T22:58:57.159Z,30.13
2022-09-24T23:01:38.427Z,29.33
2022-09-24T23:04:06.232Z,29.97
2022-09-24T23:06:34.672Z,29.40
2022-09-24T23:09:01.907Z,29.00
2022-09-24T23:11:31.478Z,28.47
2022-09-24T23:14:00.811Z,27.97
2022-09-24T23:16:30.107Z,27.67
2022-09-24T23:18:59.970Z,28.93
2022-09-24T23:21:30.411Z,28.63
2022-09-24T23:24:09.318Z,26.73
2022-09-24T23:26:36.792Z,28.00
2022-09-24T23:29:04.462Z,27.47
2022-09-24T23:31:34.405Z,27.10
2022-09-24T23:34:01.723Z,27.47
2022-09-24T23:36:31.401Z,26.83
2022-09-24T23:39:00.226Z,26.27
2022-09-24T23:41:29.007Z,25.10
2022-09-24T23:43:55.756Z,23.80
2022-09-24T23:46:22.710Z,24.53
2022-09-24T23:48:49.830Z,23.23
2022-09-24T23:51:16.565Z,23.47
2022-09-24T23:53:43.360Z,23.80
2022-09-24T23:56:11.228Z,23.30
2022-09-24T23:58:38.020Z,23.80
